Time;durP1;ratioP1;P1;durP2;ratioP2;P2;SDS_P1;SDS_P2;PMS_P1;PMS_P2;Temp;Humidity;BMP_temperature;BMP_pressure;BME280_temperature;BME280_humidity;BME280_pressure;Samples;Min_cycle;Max_cycle;Signal;HPM_P1;HPM_P2
2023/05/29 00:00:25;;;;;;;4.03;2.70;;;17.80;54.70;16.90;96442.00;;;;6018981;23;20195;-80
2023/05/29 00:02:52;;;;;;;2.23;2.03;;;17.80;54.80;16.90;96441.00;;;;6068121;23;20180;-80
2023/05/29 00:05:19;;;;;;;2.60;2.40;;;17.80;54.80;16.90;96443.00;;;;6067759;23;20641;-80
2023/05/29 00:07:48;;;;;;;4.37;2.40;;;17.80;54.80;16.90;96444.00;;;;6067933;23;20255;-80
2023/05/29 00:10:16;;;;;;;2.30;2.10;;;17.80;55.00;16.90;96442.00;;;;6043269;23;20654;-79
2023/05/29 00:12:43;;;;;;;2.33;2.13;;;17.80;55.20;16.90;96445.00;;;;6068026;23;20203;-79
2023/05/29 00:15:12;;;;;;;3.60;2.40;;;17.80;55.40;16.90;96445.00;;;;6069197;23;20252;-80
2023/05/29 00:17:42;;;;;;;4.57;2.33;;;17.80;55.60;16.80;96441.00;;;;6069572;23;20176;-80
2023/05/29 00:20:12;;;;;;;3.67;2.60;;;17.80;55.70;16.80;96445.00;;;;6070652;23;20199;-79
2023/05/29 00:22:39;;;;;;;3.20;2.53;;;17.80;55.60;16.80;96441.00;;;;6070655;23;20710;-80
2023/05/29 00:25:08;;;;;;;3.50;2.23;;;17.70;55.50;16.80;96443.00;;;;6052243;23;20682;-80
2023/05/29 00:27:37;;;;;;;4.17;2.53;;;17.70;55.50;16.80;96444.00;;;;6070186;23;20240;-80
2023/05/29 00:30:06;;;;;;;3.57;2.57;;;17.70;55.50;16.80;96435.00;;;;6070421;23;20247;-79
2023/05/29 00:32:34;;;;;;;3.03;2.37;;;17.70;55.60;16.80;96435.00;;;;6067437;23;20274;-80
2023/05/29 00:35:03;;;;;;;2.87;2.23;;;17.70;55.70;16.80;96439.00;;;;6069115;23;20192;-80
2023/05/29 00:37:30;;;;;;;3.60;2.10;;;17.70;55.70;16.80;96431.00;;;;6066223;23;20178;-80
2023/05/29 00:39:59;;;;;;;2.90;2.20;;;17.70;55.60;16.70;96435.00;;;;6067199;23;20259;-80
2023/05/29 00:42:26;;;;;;;3.03;2.57;;;17.70;55.70;16.70;96433.00;;;;6068420;23;20215;-79
2023/05/29 00:44:54;;;;;;;2.57;2.37;;;17.60;55.70;16.70;96433.00;;;;6067464;23;20247;-79
2023/05/29 00:47:21;;;;;;;3.50;2.30;;;17.60;55.70;16.70;96439.00;;;;6069024;23;20207;-80
2023/05/29 00:49:51;;;;;;;5.03;2.60;;;17.60;55.70;16.70;96438.00;;;;6068828;23;20854;-80
2023/05/29 00:52:21;;;;;;;3.27;2.57;;;17.60;55.70;16.70;96442.00;;;;6077893;23;20179;-79
2023/05/29 00:54:49;;;;;;;4.23;2.57;;;17.60;55.80;16.70;96439.00;;;;6068228;23;20252;-80
2023/05/29 00:57:18;;;;;;;2.83;2.63;;;17.60;55.80;16.70;96442.00;;;;6068723;23;20267;-79
2023/05/29 00:59:48;;;;;;;3.73;2.20;;;17.60;56.00;16.70;96438.00;;;;6068413;23;20250;-80
2023/05/29 01:02:18;;;;;;;2.80;2.33;;;17.60;56.00;16.70;96444.00;;;;6068458;23;20207;-80
2023/05/29 01:04:46;;;;;;;3.57;2.40;;;17.60;56.00;16.70;96439.00;;;;6066498;23;20202;-80
2023/05/29 01:07:15;;;;;;;3.20;2.63;;;17.60;56.00;16.70;96443.00;;;;6067604;23;20188;-80
2023/05/29 01:09:44;;;;;;;2.57;2.27;;;17.60;56.00;16.70;96446.00;;;;6042876;23;20233;-80
2023/05/29 01:12:28;;;;;;;2.93;2.60;;;17.60;56.10;16.70;96448.00;;;;6067697;23;20248;-80
2023/05/29 01:15:15;;;;;;;3.13;2.77;;;17.60;56.20;16.70;96448.00;;;;6066292;23;20270;-80
2023/05/29 01:18:01;;;;;;;3.80;2.43;;;17.60;56.30;16.70;96441.00;;;;6066745;23;20264;-80
2023/05/29 01:20:41;;;;;;;3.00;2.50;;;17.60;56.20;16.70;96442.00;;;;6067743;23;20539;-80
2023/05/29 01:23:30;;;;;;;2.60;2.40;;;17.60;56.20;16.70;96441.00;;;;6067643;23;20286;-80
2023/05/29 01:26:25;;;;;;;3.67;2.50;;;17.60;56.40;16.70;96436.00;;;;6067415;23;20266;-80
2023/05/29 01:29:00;;;;;;;2.67;2.13;;;17.60;56.60;16.70;96445.00;;;;6066299;23;20176;-80
2023/05/29 01:31:29;;;;;;;2.60;2.40;;;17.60;56.40;16.70;96441.00;;;;6041731;23;20160;-80
2023/05/29 01:33:59;;;;;;;4.03;2.60;;;17.60;56.40;16.70;96438.00;;;;6065120;23;20200;-80
2023/05/29 01:36:27;;;;;;;3.10;2.50;;;17.60;56.50;16.70;96438.00;;;;6065157;23;20875;-80
2023/05/29 01:38:58;;;;;;;3.73;2.50;;;17.60;56.50;16.70;96436.00;;;;6065376;23;20256;-80
2023/05/29 01:41:27;;;;;;;2.83;2.40;;;17.60;56.60;16.60;96438.00;;;;6039805;23;20661;-80
2023/05/29 01:43:59;;;;;;;2.50;2.30;;;17.60;56.50;16.70;96440.00;;;;6040224;23;20231;-80
2023/05/29 01:46:26;;;;;;;3.17;2.73;;;17.60;57.00;16.60;96433.00;;;;6041646;23;20179;-80
2023/05/29 01:48:55;;;;;;;3.90;2.80;;;17.60;56.50;16.60;96441.00;;;;6069089;23;20545;-80
2023/05/29 01:51:23;;;;;;;3.70;2.30;;;17.60;56.50;16.60;96438.00;;;;6070166;23;20172;-80
2023/05/29 01:53:51;;;;;;;3.80;3.03;;;17.60;56.50;16.60;96438.00;;;;6069913;23;20278;-80
2023/05/29 01:56:19;;;;;;;2.97;2.47;;;17.50;56.50;16.60;96434.00;;;;6070676;23;20222;-81
2023/05/29 01:58:48;;;;;;;3.60;2.60;;;17.50;56.40;16.50;96428.00;;;;6071216;23;20176;-80
2023/05/29 02:01:17;;;;;;;2.60;2.20;;;17.50;56.50;16.50;96431.00;;;;6072454;23;20204;-79
2023/05/29 02:03:44;;;;;;;2.77;2.40;;;17.50;56.50;16.50;96433.00;;;;6047985;23;20275;-80
2023/05/29 02:06:11;;;;;;;4.13;2.40;;;17.50;56.40;16.40;96433.00;;;;6050012;23;20203;-79
2023/05/29 02:08:39;;;;;;;2.73;2.47;;;17.50;56.50;16.40;96436.00;;;;6077295;23;20188;-79
2023/05/29 02:11:07;;;;;;;2.90;2.30;;;17.40;56.50;16.40;96432.00;;;;6077843;23;20177;-79
2023/05/29 02:13:35;;;;;;;3.10;2.80;;;17.40;56.50;16.30;96432.00;;;;6027799;23;20204;-80
2023/05/29 02:16:02;;;;;;;2.60;2.33;;;17.40;56.50;16.30;96433.00;;;;6075002;23;20172;-80
2023/05/29 02:18:32;;;;;;;3.27;2.53;;;17.30;56.50;16.20;96431.00;;;;6043745;23;20207;-80
2023/05/29 02:20:59;;;;;;;3.03;2.47;;;17.30;56.50;16.20;96434.00;;;;6069323;23;20172;-80
2023/05/29 02:23:27;;;;;;;2.90;2.63;;;17.20;56.60;16.10;96437.00;;;;6068177;23;20204;-80
2023/05/29 02:25:56;;;;;;;4.40;2.23;;;17.20;56.70;16.10;96433.00;;;;6068553;23;20207;-80
2023/05/29 02:28:25;;;;;;;2.90;2.37;;;17.10;56.60;16.00;96436.00;;;;6066414;23;20247;-80
2023/05/29 02:30:52;;;;;;;2.93;2.63;;;17.10;56.70;16.00;96433.00;;;;6041295;23;20180;-80
2023/05/29 02:33:20;;;;;;;2.50;2.30;;;17.00;56.70;15.90;96435.00;;;;6040935;23;20227;-79
2023/05/29 02:35:49;;;;;;;2.90;2.60;;;17.00;56.80;15.90;96433.00;;;;6066087;23;20606;-80
2023/05/29 02:38:17;;;;;;;2.70;2.50;;;16.90;56.90;15.90;96434.00;;;;6041078;23;20175;-80
2023/05/29 02:40:44;;;;;;;4.83;2.57;;;16.90;56.90;15.80;96435.00;;;;6066418;23;20255;-80
2023/05/29 02:43:15;;;;;;;3.03;2.73;;;16.90;57.00;15.80;96426.00;;;;6068367;23;20615;-80
2023/05/29 02:45:43;;;;;;;2.77;2.57;;;16.80;57.10;15.70;96422.00;;;;6021738;23;20183;-79
2023/05/29 02:48:10;;;;;;;3.37;2.50;;;16.80;57.20;15.70;96426.00;;;;6070466;23;20235;-81
2023/05/29 02:50:37;;;;;;;2.63;2.40;;;16.70;57.20;15.70;96424.00;;;;6070943;23;20176;-80
2023/05/29 02:53:07;;;;;;;3.90;2.67;;;16.70;57.30;15.60;96422.00;;;;6045746;23;20172;-80
2023/05/29 02:55:35;;;;;;;3.47;2.90;;;16.70;57.40;15.60;96423.00;;;;6071885;23;20204;-80
2023/05/29 02:58:03;;;;;;;2.90;2.50;;;16.70;57.50;15.60;96428.00;;;;6072222;23;20176;-79
2023/05/29 03:00:30;;;;;;;3.00;2.70;;;16.60;57.50;15.60;96429.00;;;;6074627;23;20654;-80
2023/05/29 03:02:58;;;;;;;3.87;2.63;;;16.60;57.70;15.50;96431.00;;;;6083727;23;20176;-80
2023/05/29 03:05:26;;;;;;;3.40;2.47;;;16.60;57.70;15.50;96434.00;;;;6077462;23;20546;-80
2023/05/29 03:07:53;;;;;;;3.17;2.87;;;16.60;57.80;15.50;96442.00;;;;6068013;23;20175;-80
2023/05/29 03:10:22;;;;;;;3.10;2.67;;;16.60;57.90;15.50;96440.00;;;;6068256;23;20654;-80
2023/05/29 03:12:51;;;;;;;4.93;2.70;;;16.60;58.00;15.50;96437.00;;;;6043801;23;20549;-80
2023/05/29 03:15:19;;;;;;;3.53;2.30;;;16.50;57.90;15.40;96432.00;;;;6069215;23;20279;-80
2023/05/29 03:17:47;;;;;;;5.20;2.40;;;16.50;58.00;15.40;96434.00;;;;6068727;23;20486;-80
2023/05/29 03:20:15;;;;;;;2.77;2.40;;;16.50;58.00;15.40;96432.00;;;;6066955;23;20172;-80
2023/05/29 03:22:42;;;;;;;2.77;2.23;;;16.50;58.00;15.40;96431.00;;;;6067233;23;20183;-80
2023/05/29 03:25:10;;;;;;;2.90;2.47;;;16.50;58.10;15.40;96440.00;;;;6065706;23;20258;-80
2023/05/29 03:27:39;;;;;;;5.47;2.80;;;16.50;58.10;15.30;96437.00;;;;6039633;23;20176;-80
2023/05/29 03:30:09;;;;;;;3.07;2.43;;;16.40;58.10;15.30;96439.00;;;;6064463;23;20176;-80
2023/05/29 03:32:36;;;;;;;2.47;2.23;;;16.40;58.20;15.30;96431.00;;;;6063889;23;20235;-79
2023/05/29 03:35:05;;;;;;;2.50;2.27;;;16.40;58.30;15.30;96432.00;;;;6039231;23;20200;-80
2023/05/29 03:37:32;;;;;;;2.73;2.40;;;16.40;58.30;15.30;96439.00;;;;6039693;23;20558;-80
2023/05/29 03:39:59;;;;;;;3.17;2.73;;;16.40;58.30;15.20;96440.00;;;;6066774;23;20493;-80
2023/05/29 03:42:27;;;;;;;3.17;2.60;;;16.30;58.40;15.20;96435.00;;;;6042037;23;20176;-80
2023/05/29 03:44:56;;;;;;;2.63;2.40;;;16.30;58.50;15.20;96432.00;;;;6067421;23;20275;-80
2023/05/29 03:47:23;;;;;;;2.87;2.30;;;16.30;58.60;15.20;96433.00;;;;6041286;23;20180;-80
2023/05/29 03:49:51;;;;;;;3.13;2.47;;;16.30;58.60;15.20;96440.00;;;;6066370;23;20242;-80
2023/05/29 03:52:18;;;;;;;3.27;2.97;;;16.30;58.70;15.20;96435.00;;;;6066561;23;20172;-80
2023/05/29 03:54:47;;;;;;;2.93;2.53;;;16.30;58.80;15.10;96448.00;;;;6042177;23;20236;-80
2023/05/29 03:57:14;;;;;;;4.30;2.67;;;16.30;58.90;15.10;96442.00;;;;6067312;23;20204;-80
2023/05/29 03:59:42;;;;;;;2.60;2.40;;;16.30;58.90;15.20;96446.00;;;;6066991;23;20245;-79
2023/05/29 04:02:11;;;;;;;3.00;2.70;;;16.20;58.90;15.10;96456.00;;;;6066541;23;20733;-79
2023/05/29 04:04:39;;;;;;;4.40;2.77;;;16.20;59.00;15.10;96460.00;;;;6041956;23;20279;-80
2023/05/29 04:07:08;;;;;;;3.77;2.47;;;16.20;59.00;15.10;96451.00;;;;6041037;23;20227;-80
2023/05/29 04:09:36;;;;;;;5.73;2.90;;;16.20;59.10;15.20;96454.00;;;;6067163;23;20183;-80
2023/05/29 04:12:05;;;;;;;3.67;3.17;;;16.20;59.20;15.20;96455.00;;;;6067287;23;20172;-80
2023/05/29 04:14:33;;;;;;;4.30;2.73;;;16.20;59.30;15.20;96465.00;;;;6018051;23;20204;-80
2023/05/29 04:17:00;;;;;;;3.40;2.67;;;16.20;59.40;15.20;96465.00;;;;6041895;23;20183;-80
2023/05/29 04:19:29;;;;;;;5.37;2.60;;;16.20;59.50;15.20;96470.00;;;;6065938;23;20183;-79
2023/05/29 04:21:58;;;;;;;4.60;2.63;;;16.20;59.70;15.20;96472.00;;;;6040758;23;20207;-79
2023/05/29 04:24:26;;;;;;;3.57;2.57;;;16.30;59.80;15.30;96464.00;;;;6005382;23;1450743;-79
2023/05/29 04:26:55;;;;;;;2.40;2.20;;;16.30;59.80;15.30;96473.00;;;;6067762;23;20431;-80
2023/05/29 04:29:23;;;;;;;2.93;2.63;;;16.30;59.90;15.30;96469.00;;;;6042555;23;20202;-80
2023/05/29 04:31:51;;;;;;;3.50;2.53;;;16.30;60.00;15.40;96469.00;;;;6044487;23;20247;-79
2023/05/29 04:34:20;;;;;;;3.00;2.67;;;16.30;60.20;15.40;96474.00;;;;6073145;23;20689;-79
2023/05/29 04:36:49;;;;;;;3.37;2.67;;;16.30;60.20;15.40;96483.00;;;;6030085;23;20178;-79
2023/05/29 04:39:16;;;;;;;4.33;2.87;;;16.40;60.30;15.40;96487.00;;;;6080856;23;20204;-79
2023/05/29 04:41:44;;;;;;;4.37;2.57;;;16.40;60.40;15.40;96485.00;;;;6053970;23;20180;-79
2023/05/29 04:44:11;;;;;;;3.30;2.60;;;16.40;60.50;15.50;96477.00;;;;6076228;23;20603;-80
2023/05/29 04:46:39;;;;;;;3.10;2.80;;;16.40;60.60;15.50;96490.00;;;;6042308;23;20259;-80
2023/05/29 04:49:06;;;;;;;4.10;2.40;;;16.50;61.40;15.50;96485.00;;;;6066955;23;20228;-80
2023/05/29 04:51:36;;;;;;;3.30;2.63;;;16.50;60.70;15.50;96486.00;;;;6042255;23;20180;-81
2023/05/29 04:54:05;;;;;;;2.70;2.50;;;16.50;60.70;15.60;96486.00;;;;6042711;23;20678;-80
2023/05/29 04:56:32;;;;;;;3.00;2.53;;;16.50;60.90;15.60;96490.00;;;;6067270;23;20254;-80
2023/05/29 04:59:00;;;;;;;4.03;2.53;;;16.50;60.90;15.60;96491.00;;;;6067077;23;20247;-80
2023/05/29 05:01:28;;;;;;;5.03;2.80;;;16.60;61.10;15.60;96491.00;;;;6042123;23;20175;-80
2023/05/29 05:03:56;;;;;;;3.30;3.00;;;16.60;61.10;15.70;96491.00;;;;6066902;23;20678;-80
2023/05/29 05:06:25;;;;;;;2.70;2.37;;;16.60;61.30;15.70;96489.00;;;;6067954;23;20235;-80
2023/05/29 05:08:52;;;;;;;2.53;2.30;;;16.60;61.30;15.70;96502.00;;;;6042109;23;20184;-79
2023/05/29 05:11:23;;;;;;;4.53;3.20;;;16.70;61.40;15.80;96496.00;;;;6040930;23;20176;-80
2023/05/29 05:13:51;;;;;;;3.23;2.70;;;16.70;61.70;15.80;96499.00;;;;6066473;23;20279;-80
2023/05/29 05:16:19;;;;;;;3.17;2.77;;;16.70;61.60;15.80;96492.00;;;;6039892;23;20172;-79
2023/05/29 05:18:46;;;;;;;2.93;2.60;;;16.80;61.70;15.90;96501.00;;;;6064902;23;20180;-80
2023/05/29 05:21:14;;;;;;;3.13;2.50;;;16.80;61.70;16.00;96499.00;;;;6065622;23;20247;-80
2023/05/29 05:23:42;;;;;;;3.20;2.63;;;16.80;61.60;16.00;96505.00;;;;6067914;23;20223;-80
2023/05/29 05:26:09;;;;;;;3.53;2.60;;;16.90;61.70;16.10;96504.00;;;;6061205;23;20705;-80
2023/05/29 05:28:38;;;;;;;2.53;2.30;;;16.90;61.70;16.20;96508.00;;;;6065856;23;20251;-79
2023/05/29 05:31:06;;;;;;;3.07;2.40;;;16.90;61.70;16.20;96503.00;;;;6069717;23;20255;-80
2023/05/29 05:33:33;;;;;;;3.13;2.20;;;17.00;61.70;16.30;96507.00;;;;6069742;23;20230;-80
2023/05/29 05:36:01;;;;;;;3.13;2.40;;;17.10;61.60;16.30;96511.00;;;;6069216;23;20313;-80
2023/05/29 05:38:31;;;;;;;3.17;2.57;;;17.10;61.60;16.40;96502.00;;;;6067874;23;20172;-80
2023/05/29 05:40:58;;;;;;;3.07;2.77;;;17.20;61.60;16.50;96514.00;;;;6068997;23;20231;-80
2023/05/29 05:43:27;;;;;;;3.77;2.60;;;17.20;61.40;16.50;96513.00;;;;6068997;23;20215;-80
2023/05/29 05:45:55;;;;;;;2.93;2.13;;;17.30;61.40;16.60;96512.00;;;;6044711;23;20680;-80
2023/05/29 05:48:23;;;;;;;3.47;2.33;;;17.40;61.30;16.70;96520.00;;;;6092859;23;20177;-80
2023/05/29 05:50:50;;;;;;;2.77;2.37;;;17.40;60.90;16.80;96519.00;;;;6070476;23;20196;-80
2023/05/29 05:53:18;;;;;;;3.67;2.20;;;17.50;61.00;16.80;96512.00;;;;6069780;23;20200;-80
2023/05/29 05:55:45;;;;;;;2.37;2.17;;;17.60;60.90;16.90;96521.00;;;;6069575;23;20670;-80
2023/05/29 05:58:13;;;;;;;3.63;2.63;;;17.60;60.70;17.00;96530.00;;;;6069822;23;20604;-79
2023/05/29 06:00:42;;;;;;;3.00;2.60;;;17.70;60.60;17.10;96528.00;;;;6069027;23;20203;-79
2023/05/29 06:03:11;;;;;;;2.23;2.03;;;17.80;60.70;17.10;96530.00;;;;6067278;23;20220;-79
2023/05/29 06:05:40;;;;;;;2.43;1.83;;;17.80;60.70;17.20;96521.00;;;;6067537;23;20195;-80
2023/05/29 06:08:09;;;;;;;2.53;2.30;;;17.90;60.50;17.30;96526.00;;;;6068742;23;20214;-79
2023/05/29 06:10:37;;;;;;;3.60;2.50;;;18.00;60.70;17.40;96529.00;;;;6067168;23;20180;-79
2023/05/29 06:13:04;;;;;;;2.50;2.30;;;18.10;60.40;17.40;96535.00;;;;6066624;23;20172;-79
2023/05/29 06:15:32;;;;;;;3.00;2.67;;;18.20;60.50;17.50;96532.00;;;;6041371;23;20239;-79
2023/05/29 06:18:00;;;;;;;2.57;2.07;;;18.20;60.50;17.60;96533.00;;;;6066513;23;20256;-80
2023/05/29 06:20:29;;;;;;;4.33;2.37;;;18.30;60.60;17.70;96539.00;;;;6068645;23;20208;-80
2023/05/29 06:22:56;;;;;;;2.70;2.20;;;18.40;60.40;17.80;96542.00;;;;6066811;23;20195;-80
2023/05/29 06:25:32;;;;;;;3.77;2.17;;;18.40;59.90;17.80;96538.00;;;;6069103;23;20267;-79
2023/05/29 06:28:00;;;;;;;2.17;1.97;;;18.50;60.60;17.90;96538.00;;;;6068958;23;20168;-79
2023/05/29 06:30:27;;;;;;;3.93;2.67;;;18.60;59.90;18.00;96544.00;;;;6068563;23;20176;-79
2023/05/29 06:32:54;;;;;;;3.30;2.63;;;18.70;60.00;18.10;96550.00;;;;6068364;23;20183;-79
2023/05/29 06:35:22;;;;;;;2.70;2.00;;;18.70;60.00;18.20;96551.00;;;;6043839;23;20275;-80
2023/05/29 06:37:51;;;;;;;2.20;2.00;;;18.80;60.00;18.30;96557.00;;;;6043012;23;20517;-80
2023/05/29 06:40:18;;;;;;;3.90;2.60;;;18.90;59.80;18.40;96560.00;;;;6068720;23;20210;-80
2023/05/29 06:42:45;;;;;;;4.83;2.20;;;19.00;59.60;18.40;96560.00;;;;6043461;23;20172;-81
2023/05/29 06:45:14;;;;;;;2.50;2.30;;;19.10;59.40;18.50;96566.00;;;;6043307;23;20173;-80
2023/05/29 06:47:43;;;;;;;2.77;2.20;;;19.10;59.00;18.60;96566.00;;;;6044317;23;20183;-81
2023/05/29 06:50:11;;;;;;;2.20;2.00;;;19.20;58.70;18.70;96568.00;;;;6045274;23;20251;-79
2023/05/29 06:52:39;;;;;;;2.90;2.57;;;19.30;58.50;18.80;96563.00;;;;6070493;23;20188;-81
2023/05/29 06:55:09;;;;;;;4.57;2.63;;;19.40;58.50;18.90;96569.00;;;;6046897;23;20199;-79
2023/05/29 06:57:36;;;;;;;2.50;2.30;;;19.50;58.50;19.00;96573.00;;;;6072858;23;20259;-78
2023/05/29 07:00:06;;;;;;;2.50;2.10;;;19.60;59.10;19.10;96575.00;;;;6051414;23;20726;-79
2023/05/29 07:02:33;;;;;;;4.10;2.40;;;19.60;58.60;19.20;96581.00;;;;6051753;23;20176;-79
2023/05/29 07:05:00;;;;;;;2.53;2.33;;;19.80;58.60;19.30;96582.00;;;;6076632;23;20194;-79
2023/05/29 07:07:27;;;;;;;3.43;2.00;;;19.90;58.40;19.50;96580.00;;;;6076073;23;20247;-78
2023/05/29 07:09:55;;;;;;;3.13;1.90;;;20.00;58.50;19.60;96589.00;;;;6076296;23;20208;-80
2023/05/29 07:12:24;;;;;;;3.40;2.00;;;20.10;58.60;19.80;96587.00;;;;6073564;23;20204;-79
2023/05/29 07:14:52;;;;;;;3.13;2.20;;;20.30;58.30;20.00;96588.00;;;;6040938;23;20551;-79
2023/05/29 07:17:19;;;;;;;2.87;2.23;;;20.40;58.00;20.20;96584.00;;;;6065236;23;20206;-80
2023/05/29 07:19:49;;;;;;;3.13;2.20;;;20.60;57.90;20.40;96587.00;;;;6066859;23;20705;-80
2023/05/29 07:22:16;;;;;;;2.43;2.23;;;20.80;58.00;20.50;96595.00;;;;6043249;23;20220;-80
2023/05/29 07:24:43;;;;;;;2.63;2.27;;;20.90;57.60;20.70;96590.00;;;;6067828;23;20198;-80
2023/05/29 07:27:11;;;;;;;2.57;2.37;;;21.10;57.30;20.90;96594.00;;;;6042763;23;20183;-83
2023/05/29 07:29:40;;;;;;;2.90;2.10;;;21.30;57.30;21.00;96590.00;;;;6043994;23;20200;-80
2023/05/29 07:32:07;;;;;;;3.07;1.97;;;21.40;57.20;21.20;96597.00;;;;6043434;23;20203;-80
2023/05/29 07:34:35;;;;;;;3.60;2.20;;;21.60;56.90;21.40;96602.00;;;;6043605;23;20224;-80
2023/05/29 07:37:04;;;;;;;4.27;2.30;;;21.80;56.70;21.60;96603.00;;;;6043037;23;20238;-80
2023/05/29 07:39:33;;;;;;;2.90;2.10;;;21.90;56.40;21.80;96600.00;;;;6068092;23;20519;-80
2023/05/29 07:42:01;;;;;;;3.97;2.27;;;22.20;56.00;22.00;96606.00;;;;6042567;23;20666;-80
2023/05/29 07:44:29;;;;;;;2.63;1.90;;;22.30;56.40;22.20;96600.00;;;;6067641;23;20698;-80
2023/05/29 07:46:58;;;;;;;2.30;1.97;;;22.50;55.70;22.30;96601.00;;;;6043451;23;20180;-81
2023/05/29 07:49:26;;;;;;;2.50;2.20;;;22.70;55.50;22.50;96600.00;;;;6068722;23;20240;-80
2023/05/29 07:51:53;;;;;;;1.83;1.70;;;22.80;55.30;22.60;96605.00;;;;6068077;23;20630;-80
2023/05/29 07:54:21;;;;;;;2.90;2.03;;;23.00;55.10;22.80;96609.00;;;;6042683;23;20783;-80
2023/05/29 07:56:48;;;;;;;2.20;2.00;;;23.20;54.70;23.00;96614.00;;;;6067536;23;20230;-80
2023/05/29 07:59:15;;;;;;;4.67;2.13;;;23.30;54.70;23.10;96614.00;;;;6068203;23;20516;-79
2023/05/29 08:01:43;;;;;;;2.07;1.87;;;23.40;54.40;23.20;96609.00;;;;6066310;23;20177;-79
2023/05/29 08:04:12;;;;;;;2.50;2.30;;;23.60;54.20;23.40;96617.00;;;;6038618;23;20227;-79
2023/05/29 08:06:42;;;;;;;2.13;1.93;;;23.70;53.50;23.50;96601.00;;;;6065516;23;20584;-80
2023/05/29 08:09:09;;;;;;;3.63;2.00;;;23.90;53.20;23.70;96612.00;;;;6063977;23;20213;-80
2023/05/29 08:11:37;;;;;;;2.07;1.87;;;24.10;53.10;23.80;96610.00;;;;6040561;23;20255;-79
2023/05/29 08:14:05;;;;;;;2.70;2.20;;;24.20;53.20;23.90;96608.00;;;;6040162;23;20266;-80
2023/05/29 08:16:32;;;;;;;2.10;1.90;;;24.30;52.60;24.10;96603.00;;;;6067651;23;20207;-80
2023/05/29 08:18:59;;;;;;;2.70;2.00;;;24.40;52.40;24.20;96609.00;;;;6043796;23;20174;-80
2023/05/29 08:21:28;;;;;;;3.23;2.00;;;24.60;52.30;24.40;96608.00;;;;6068329;23;20224;-80
2023/05/29 08:23:55;;;;;;;2.23;1.87;;;24.70;52.30;24.60;96609.00;;;;6068754;23;20234;-80
2023/05/29 08:26:23;;;;;;;2.40;1.97;;;24.90;52.10;24.70;96617.00;;;;6040924;23;20508;-80
2023/05/29 08:28:50;;;;;;;3.57;1.87;;;25.00;51.80;24.90;96618.00;;;;6068025;23;20199;-80
2023/05/29 08:31:17;;;;;;;2.57;2.00;;;25.20;51.70;25.00;96621.00;;;;6066531;23;20182;-79
2023/05/29 08:33:45;;;;;;;2.40;2.20;;;25.30;51.00;25.20;96620.00;;;;6067157;23;20281;-80
2023/05/29 08:36:12;;;;;;;2.50;2.30;;;25.40;50.80;25.30;96626.00;;;;6068417;23;20235;-81
2023/05/29 08:38:41;;;;;;;3.03;2.10;;;25.60;50.60;25.40;96622.00;;;;6067252;23;20244;-80
2023/05/29 08:41:18;;;;;;;2.63;2.00;;;25.70;50.10;25.60;96619.00;;;;6068230;23;20258;-81
2023/05/29 08:43:47;;;;;;;2.20;2.00;;;25.80;50.00;25.70;96626.00;;;;6066327;23;20584;-80
2023/05/29 08:46:18;;;;;;;1.87;1.73;;;26.00;50.00;25.90;96618.00;;;;6067399;23;20246;-81
2023/05/29 08:48:50;;;;;;;2.43;2.20;;;26.20;50.10;26.00;96619.00;;;;6067042;23;20259;-80
2023/05/29 08:51:22;;;;;;;2.13;1.73;;;26.30;49.50;26.20;96620.00;;;;6066178;23;20179;-80
2023/05/29 08:53:53;;;;;;;3.70;2.37;;;26.50;49.20;26.30;96617.00;;;;6066222;23;20192;-81
2023/05/29 08:56:22;;;;;;;2.80;2.10;;;26.60;48.90;26.50;96626.00;;;;6065891;23;20599;-80
2023/05/29 08:58:52;;;;;;;2.30;1.90;;;26.80;49.00;26.60;96621.00;;;;6063982;23;20172;-80
2023/05/29 09:01:20;;;;;;;2.03;1.73;;;26.90;48.70;26.70;96629.00;;;;6065173;23;20607;-81
2023/05/29 09:03:48;;;;;;;2.40;2.10;;;27.10;48.60;26.90;96619.00;;;;6065165;23;20195;-81
2023/05/29 09:06:18;;;;;;;3.17;2.40;;;27.20;47.90;27.00;96628.00;;;;6064344;23;20218;-80
2023/05/29 09:08:46;;;;;;;2.03;1.83;;;27.30;47.60;27.10;96626.00;;;;6067001;23;20183;-81
2023/05/29 09:11:15;;;;;;;2.43;2.23;;;27.40;47.00;27.20;96625.00;;;;6066847;23;20168;-83
2023/05/29 09:13:42;;;;;;;2.87;1.93;;;27.60;46.50;27.30;96635.00;;;;6065568;23;20199;-79
2023/05/29 09:16:10;;;;;;;2.03;1.83;;;27.70;47.00;27.40;96631.00;;;;6071787;23;20287;-81
2023/05/29 09:18:38;;;;;;;3.23;2.00;;;27.80;47.00;27.60;96634.00;;;;6072682;23;20231;-81
2023/05/29 09:21:10;;;;;;;3.78;1.90;;;27.90;47.00;27.70;96631.00;;;;6070802;23;20186;-79
2023/05/29 09:23:37;;;;;;;3.27;2.10;;;28.00;46.50;27.90;96635.00;;;;6073918;23;20196;-82
2023/05/29 09:26:05;;;;;;;4.35;2.28;;;28.30;46.50;28.00;96636.00;;;;6077180;23;20195;-81
2023/05/29 09:28:34;;;;;;;2.92;1.85;;;28.40;46.10;28.20;96634.00;;;;6077827;23;20536;-81
2023/05/29 09:31:02;;;;;;;2.15;1.85;;;28.60;46.10;28.40;96632.00;;;;6082938;23;20187;-81
2023/05/29 09:33:29;;;;;;;2.58;2.17;;;28.80;46.10;28.50;96632.00;;;;6082852;23;20231;-81
2023/05/29 09:35:56;;;;;;;1.90;1.67;;;29.00;46.00;28.70;96635.00;;;;6084023;23;20288;-81
2023/05/29 09:38:23;;;;;;;2.15;1.85;;;29.10;45.60;28.90;96643.00;;;;6081681;23;20172;-82
2023/05/29 09:40:55;;;;;;;2.08;1.88;;;29.30;45.00;28.90;96631.00;;;;6070662;23;20176;-82
2023/05/29 09:43:23;;;;;;;2.08;1.70;;;29.50;44.10;29.10;96638.00;;;;6070076;23;20192;-81
2023/05/29 09:45:54;;;;;;;2.13;1.92;;;29.70;44.10;29.20;96635.00;;;;6068949;23;20549;-80
2023/05/29 09:48:25;;;;;;;2.55;2.03;;;29.80;43.50;29.30;96632.00;;;;6047379;23;20172;-80
2023/05/29 09:50:55;;;;;;;2.50;2.13;;;30.00;43.60;29.50;96638.00;;;;6069035;23;20243;-80
2023/05/29 09:53:25;;;;;;;2.00;1.80;;;30.20;44.10;29.70;96645.00;;;;6044663;23;20196;-81
2023/05/29 09:55:54;;;;;;;3.05;2.10;;;30.40;43.10;29.80;96645.00;;;;6068988;23;20548;-80
2023/05/29 09:58:22;;;;;;;2.60;2.40;;;30.60;42.60;30.00;96647.00;;;;6070262;23;20172;-82
2023/05/29 10:00:53;;;;;;;2.40;1.90;;;30.80;41.80;30.00;96644.00;;;;6067801;23;20232;-81
2023/05/29 10:03:23;;;;;;;2.03;1.83;;;30.90;41.10;30.10;96639.00;;;;6071823;23;20220;-81
2023/05/29 10:05:56;;;;;;;2.42;1.90;;;31.10;41.30;30.20;96642.00;;;;6068330;23;20176;-81
2023/05/29 10:08:23;;;;;;;2.22;1.90;;;31.20;41.00;30.30;96645.00;;;;6075192;23;20178;-81
2023/05/29 10:11:01;;;;;;;2.58;1.90;;;31.30;40.60;30.30;96647.00;;;;6077802;23;20172;-81
2023/05/29 10:13:36;;;;;;;2.25;1.90;;;31.40;39.90;30.30;96645.00;;;;6078667;23;20259;-81
2023/05/29 10:16:10;;;;;;;3.55;2.03;;;31.40;39.80;30.40;96637.00;;;;6078625;23;20267;-82
2023/05/29 10:18:43;;;;;;;4.45;2.08;;;31.50;39.80;30.40;96649.00;;;;6076680;23;20626;-81
2023/05/29 10:21:13;;;;;;;1.88;1.70;;;31.50;39.30;30.50;96641.00;;;;6076424;23;20164;-81
2023/05/29 10:23:47;;;;;;;2.42;2.00;;;31.50;38.90;30.40;96644.00;;;;6078265;23;20196;-81
2023/05/29 10:26:21;;;;;;;1.83;1.73;;;31.40;39.10;30.50;96642.00;;;;6078546;23;20219;-81
2023/05/29 10:28:58;;;;;;;2.17;1.98;;;31.40;39.30;30.40;96638.00;;;;6080150;23;20191;-81
2023/05/29 10:31:38;;;;;;;2.22;1.98;;;31.40;39.40;30.40;96633.00;;;;6079413;23;20192;-80
2023/05/29 10:34:26;;;;;;;2.30;2.03;;;31.30;39.10;30.50;96636.00;;;;6058336;23;20376;-81
2023/05/29 10:37:05;;;;;;;2.05;1.80;;;31.30;39.00;30.50;96637.00;;;;6079147;23;20267;-81
2023/05/29 10:39:33;;;;;;;2.22;2.00;;;31.30;39.10;30.50;96640.00;;;;6082874;23;20611;-81
2023/05/29 10:42:01;;;;;;;2.10;1.85;;;31.20;39.00;30.60;96641.00;;;;6082034;23;20564;-81
2023/05/29 10:44:42;;;;;;;2.92;2.17;;;31.20;38.60;30.50;96642.00;;;;6085846;23;20219;-80
2023/05/29 10:47:12;;;;;;;2.00;1.85;;;31.20;37.40;30.50;96641.00;;;;6060500;23;20168;-81
2023/05/29 10:49:40;;;;;;;3.72;2.42;;;31.10;37.80;30.50;96640.00;;;;6046827;23;20172;-81
2023/05/29 10:52:11;;;;;;;1.80;1.70;;;31.10;37.90;30.40;96642.00;;;;6068482;23;20168;-80
2023/05/29 10:54:56;;;;;;;2.55;2.10;;;31.00;37.90;30.40;96639.00;;;;6043871;23;20196;-80
2023/05/29 10:57:26;;;;;;;2.30;1.80;;;30.90;37.60;30.20;96637.00;;;;6068090;23;20559;-81
2023/05/29 11:00:05;;;;;;;3.70;1.95;;;30.80;37.10;30.00;96629.00;;;;6043386;23;20175;-81
2023/05/29 11:02:40;;;;;;;2.58;2.22;;;30.70;37.20;29.90;96635.00;;;;6067796;23;20157;-82